Maldives Meteorological Service

TAFS

Station TAF
VRMM
VRMM 241100Z 2412/2518 27010KT 9999 FEW017TCU TEMPO 2413/2419 5000 -TSRA FEW018CB=
VRMH
VRMH 241100Z 2412/2518 28010KT 9999 FEW017TCU BKN120 TEMPO 2413/2419 5000 -TSRA FEW018CB=
VRMK
VRMK 241100Z 2412/2512 22007KT 9999 FEW018 TEMPO 2412/2418 FEW018CB=
VRMT
VRMT 241100Z 2412/2512 20006KT 9999 FEW018TCU TEMPO 2412/2418 FEW018CB=
VRMG
VRMG 241100Z 2412/2518 17007KT 9999 FEW018 TEMPO 2412/2418 FEW018CB=